sensor_id;sensor_type;location;lat;lon;timestamp;temperature;humidity
74923;HTU21D;64715;44.760;37.678;2023-04-03T00:00:23;10.71;78.63
74923;HTU21D;64715;44.760;37.678;2023-04-03T00:01:24;10.69;78.77
74923;HTU21D;64715;44.760;37.678;2023-04-03T00:02:27;10.72;78.69
74923;HTU21D;64715;44.760;37.678;2023-04-03T00:03:29;10.71;78.82
74923;HTU21D;64715;44.760;37.678;2023-04-03T00:04:30;10.71;78.71
74923;HTU21D;64715;44.760;37.678;2023-04-03T00:05:31;10.71;78.73
74923;HTU21D;64715;44.760;37.678;2023-04-03T00:06:32;10.71;78.91
74923;HTU21D;64715;44.760;37.678;2023-04-03T00:07:33;10.70;79.07
74923;HTU21D;64715;44.760;37.678;2023-04-03T00:08:34;10.70;79.12
74923;HTU21D;64715;44.760;37.678;2023-04-03T00:09:35;10.70;79.37
74923;HTU21D;64715;44.760;37.678;2023-04-03T00:10:37;10.69;79.37
74923;HTU21D;64715;44.760;37.678;2023-04-03T00:11:38;10.69;79.43
74923;HTU21D;64715;44.760;37.678;2023-04-03T00:12:39;10.69;79.58
74923;HTU21D;64715;44.760;37.678;2023-04-03T00:13:41;10.68;79.70
74923;HTU21D;64715;44.760;37.678;2023-04-03T00:14:42;10.69;79.66
74923;HTU21D;64715;44.760;37.678;2023-04-03T00:15:43;10.67;79.64
74923;HTU21D;64715;44.760;37.678;2023-04-03T00:16:45;10.68;79.64
74923;HTU21D;64715;44.760;37.678;2023-04-03T00:17:46;10.66;79.57
74923;HTU21D;64715;44.760;37.678;2023-04-03T00:18:47;10.67;79.71
74923;HTU21D;64715;44.760;37.678;2023-04-03T00:19:48;10.67;79.83
74923;HTU21D;64715;44.760;37.678;2023-04-03T00:20:49;10.66;80.07
74923;HTU21D;64715;44.760;37.678;2023-04-03T00:21:50;10.66;79.86
74923;HTU21D;64715;44.760;37.678;2023-04-03T00:22:54;10.67;79.90
74923;HTU21D;64715;44.760;37.678;2023-04-03T00:23:55;10.65;80.04
74923;HTU21D;64715;44.760;37.678;2023-04-03T00:24:56;10.65;80.00
74923;HTU21D;64715;44.760;37.678;2023-04-03T00:25:57;10.65;80.23
74923;HTU21D;64715;44.760;37.678;2023-04-03T00:26:58;10.64;80.11
74923;HTU21D;64715;44.760;37.678;2023-04-03T00:27:59;10.66;80.17
74923;HTU21D;64715;44.760;37.678;2023-04-03T00:29:00;10.65;80.23
74923;HTU21D;64715;44.760;37.678;2023-04-03T00:30:02;10.65;80.27
74923;HTU21D;64715;44.760;37.678;2023-04-03T00:31:03;10.65;80.46
74923;HTU21D;64715;44.760;37.678;2023-04-03T00:32:04;10.65;80.42
74923;HTU21D;64715;44.760;37.678;2023-04-03T00:33:07;10.64;80.36
74923;HTU21D;64715;44.760;37.678;2023-04-03T00:34:08;10.63;80.59
74923;HTU21D;64715;44.760;37.678;2023-04-03T00:35:09;10.64;80.54
74923;HTU21D;64715;44.760;37.678;2023-04-03T00:36:12;10.63;80.52
74923;HTU21D;64715;44.760;37.678;2023-04-03T00:37:13;10.64;80.62
74923;HTU21D;64715;44.760;37.678;2023-04-03T00:38:15;10.64;80.55
74923;HTU21D;64715;44.760;37.678;2023-04-03T00:39:16;10.63;80.72
74923;HTU21D;64715;44.760;37.678;2023-04-03T00:40:17;10.65;80.73
74923;HTU21D;64715;44.760;37.678;2023-04-03T00:41:18;10.66;80.68
74923;HTU21D;64715;44.760;37.678;2023-04-03T00:42:20;10.65;80.78
74923;HTU21D;64715;44.760;37.678;2023-04-03T00:43:23;10.66;80.61
74923;HTU21D;64715;44.760;37.678;2023-04-03T00:45:36;10.68;80.81
74923;HTU21D;64715;44.760;37.678;2023-04-03T00:46:37;10.65;80.78
74923;HTU21D;64715;44.760;37.678;2023-04-03T00:47:39;10.67;80.74
74923;HTU21D;64715;44.760;37.678;2023-04-03T00:48:44;10.65;81.10
74923;HTU21D;64715;44.760;37.678;2023-04-03T00:49:46;10.64;80.90
74923;HTU21D;64715;44.760;37.678;2023-04-03T00:50:48;10.63;81.05
74923;HTU21D;64715;44.760;37.678;2023-04-03T00:51:49;10.65;81.10
74923;HTU21D;64715;44.760;37.678;2023-04-03T00:52:52;10.65;81.47
74923;HTU21D;64715;44.760;37.678;2023-04-03T00:53:58;10.66;81.16
74923;HTU21D;64715;44.760;37.678;2023-04-03T00:55:03;10.65;81.05
74923;HTU21D;64715;44.760;37.678;2023-04-03T00:56:09;10.66;81.14
74923;HTU21D;64715;44.760;37.678;2023-04-03T00:57:11;10.64;81.07
74923;HTU21D;64715;44.760;37.678;2023-04-03T00:58:12;10.64;81.32
74923;HTU21D;64715;44.760;37.678;2023-04-03T00:59:18;10.65;81.18
74923;HTU21D;64715;44.760;37.678;2023-04-03T01:00:23;10.64;81.08
74923;HTU21D;64715;44.760;37.678;2023-04-03T01:01:27;10.65;81.16
74923;HTU21D;64715;44.760;37.678;2023-04-03T01:02:28;10.65;81.26
74923;HTU21D;64715;44.760;37.678;2023-04-03T01:03:29;10.66;81.53
74923;HTU21D;64715;44.760;37.678;2023-04-03T01:05:37;10.66;81.37
74923;HTU21D;64715;44.760;37.678;2023-04-03T01:06:38;10.64;81.39
74923;HTU21D;64715;44.760;37.678;2023-04-03T01:07:42;10.65;81.44
74923;HTU21D;64715;44.760;37.678;2023-04-03T01:08:44;10.64;81.37
74923;HTU21D;64715;44.760;37.678;2023-04-03T01:09:47;10.64;81.64
74923;HTU21D;64715;44.760;37.678;2023-04-03T01:10:48;10.65;81.63
74923;HTU21D;64715;44.760;37.678;2023-04-03T01:11:50;10.64;81.64
74923;HTU21D;64715;44.760;37.678;2023-04-03T01:12:51;10.62;81.69
74923;HTU21D;64715;44.760;37.678;2023-04-03T01:13:53;10.64;81.75
74923;HTU21D;64715;44.760;37.678;2023-04-03T01:14:56;10.60;81.94
74923;HTU21D;64715;44.760;37.678;2023-04-03T01:16:01;10.62;81.99
74923;HTU21D;64715;44.760;37.678;2023-04-03T01:17:02;10.60;81.79
74923;HTU21D;64715;44.760;37.678;2023-04-03T01:18:03;10.59;81.67
74923;HTU21D;64715;44.760;37.678;2023-04-03T01:19:10;10.60;81.97
74923;HTU21D;64715;44.760;37.678;2023-04-03T01:22:15;10.57;81.80
74923;HTU21D;64715;44.760;37.678;2023-04-03T01:25:28;10.54;81.95
74923;HTU21D;64715;44.760;37.678;2023-04-03T01:26:31;10.54;81.85
74923;HTU21D;64715;44.760;37.678;2023-04-03T01:27:34;10.53;81.82
74923;HTU21D;64715;44.760;37.678;2023-04-03T01:28:35;10.54;82.46
74923;HTU21D;64715;44.760;37.678;2023-04-03T01:29:37;10.53;82.68
74923;HTU21D;64715;44.760;37.678;2023-04-03T01:30:45;10.54;82.62
74923;HTU21D;64715;44.760;37.678;2023-04-03T01:31:57;10.53;82.63
74923;HTU21D;64715;44.760;37.678;2023-04-03T01:32:58;10.54;82.61
74923;HTU21D;64715;44.760;37.678;2023-04-03T01:33:59;10.52;82.42
74923;HTU21D;64715;44.760;37.678;2023-04-03T01:35:02;10.53;82.46
74923;HTU21D;64715;44.760;37.678;2023-04-03T01:36:04;10.54;82.77
74923;HTU21D;64715;44.760;37.678;2023-04-03T01:37:06;10.55;82.58
74923;HTU21D;64715;44.760;37.678;2023-04-03T01:38:07;10.55;82.54
74923;HTU21D;64715;44.760;37.678;2023-04-03T01:39:09;10.56;82.76
74923;HTU21D;64715;44.760;37.678;2023-04-03T01:40:11;10.56;82.43
74923;HTU21D;64715;44.760;37.678;2023-04-03T01:41:12;10.58;82.81
74923;HTU21D;64715;44.760;37.678;2023-04-03T01:42:14;10.58;82.83
74923;HTU21D;64715;44.760;37.678;2023-04-03T01:43:18;10.59;82.86
74923;HTU21D;64715;44.760;37.678;2023-04-03T01:44:20;10.60;82.84
74923;HTU21D;64715;44.760;37.678;2023-04-03T01:45:21;10.62;83.07
74923;HTU21D;64715;44.760;37.678;2023-04-03T01:46:22;10.62;83.04
74923;HTU21D;64715;44.760;37.678;2023-04-03T01:47:23;10.62;83.07
74923;HTU21D;64715;44.760;37.678;2023-04-03T01:48:24;10.60;82.81
74923;HTU21D;64715;44.760;37.678;2023-04-03T01:49:26;10.60;82.94
74923;HTU21D;64715;44.760;37.678;2023-04-03T01:50:27;10.60;83.05
74923;HTU21D;64715;44.760;37.678;2023-04-03T01:51:28;10.62;83.05
74923;HTU21D;64715;44.760;37.678;2023-04-03T01:52:29;10.62;83.01
74923;HTU21D;64715;44.760;37.678;2023-04-03T01:53:30;10.64;83.20
74923;HTU21D;64715;44.760;37.678;2023-04-03T01:54:32;10.65;83.19
74923;HTU21D;64715;44.760;37.678;2023-04-03T01:55:33;10.65;82.84
74923;HTU21D;64715;44.760;37.678;2023-04-03T01:56:34;10.65;83.07
74923;HTU21D;64715;44.760;37.678;2023-04-03T01:57:35;10.65;83.27
74923;HTU21D;64715;44.760;37.678;2023-04-03T01:58:36;10.67;83.19
74923;HTU21D;64715;44.760;37.678;2023-04-03T01:59:37;10.68;83.07
74923;HTU21D;64715;44.760;37.678;2023-04-03T02:00:38;10.66;83.34
74923;HTU21D;64715;44.760;37.678;2023-04-03T02:01:39;10.67;83.13
74923;HTU21D;64715;44.760;37.678;2023-04-03T02:02:41;10.68;83.22
74923;HTU21D;64715;44.760;37.678;2023-04-03T02:03:42;10.67;83.39
74923;HTU21D;64715;44.760;37.678;2023-04-03T02:04:43;10.67;83.23
74923;HTU21D;64715;44.760;37.678;2023-04-03T02:05:44;10.67;83.23
74923;HTU21D;64715;44.760;37.678;2023-04-03T02:06:45;10.65;83.27
74923;HTU21D;64715;44.760;37.678;2023-04-03T02:07:46;10.65;83.16
74923;HTU21D;64715;44.760;37.678;2023-04-03T02:08:47;10.66;83.14
74923;HTU21D;64715;44.760;37.678;2023-04-03T02:09:48;10.64;83.40
74923;HTU21D;64715;44.760;37.678;2023-04-03T02:10:50;10.65;83.16
74923;HTU21D;64715;44.760;37.678;2023-04-03T02:11:52;10.64;83.42
74923;HTU21D;64715;44.760;37.678;2023-04-03T02:12:53;10.64;83.56
74923;HTU21D;64715;44.760;37.678;2023-04-03T02:13:54;10.63;83.52
74923;HTU21D;64715;44.760;37.678;2023-04-03T02:14:55;10.62;83.37
74923;HTU21D;64715;44.760;37.678;2023-04-03T02:15:56;10.63;83.25
74923;HTU21D;64715;44.760;37.678;2023-04-03T02:16:57;10.60;83.36
74923;HTU21D;64715;44.760;37.678;2023-04-03T02:17:58;10.62;83.42
74923;HTU21D;64715;44.760;37.678;2023-04-03T02:19:00;10.60;83.45
74923;HTU21D;64715;44.760;37.678;2023-04-03T02:20:03;10.58;83.65
74923;HTU21D;64715;44.760;37.678;2023-04-03T02:21:04;10.58;83.60
74923;HTU21D;64715;44.760;37.678;2023-04-03T02:22:06;10.60;83.77
74923;HTU21D;64715;44.760;37.678;2023-04-03T02:23:07;10.58;83.40
74923;HTU21D;64715;44.760;37.678;2023-04-03T02:24:08;10.58;83.53
74923;HTU21D;64715;44.760;37.678;2023-04-03T02:25:09;10.57;83.88
74923;HTU21D;64715;44.760;37.678;2023-04-03T02:26:13;10.57;83.65
74923;HTU21D;64715;44.760;37.678;2023-04-03T02:27:15;10.55;83.76
74923;HTU21D;64715;44.760;37.678;2023-04-03T02:28:16;10.57;84.09
74923;HTU21D;64715;44.760;37.678;2023-04-03T02:29:17;10.57;83.68
74923;HTU21D;64715;44.760;37.678;2023-04-03T02:30:18;10.55;83.79
74923;HTU21D;64715;44.760;37.678;2023-04-03T02:31:19;10.55;83.75
74923;HTU21D;64715;44.760;37.678;2023-04-03T02:32:21;10.53;83.84
74923;HTU21D;64715;44.760;37.678;2023-04-03T02:33:22;10.53;83.90
74923;HTU21D;64715;44.760;37.678;2023-04-03T02:34:24;10.53;83.91
74923;HTU21D;64715;44.760;37.678;2023-04-03T02:35:26;10.52;84.19
74923;HTU21D;64715;44.760;37.678;2023-04-03T02:36:30;10.52;83.98
74923;HTU21D;64715;44.760;37.678;2023-04-03T02:37:33;10.50;83.97
74923;HTU21D;64715;44.760;37.678;2023-04-03T02:38:36;10.51;83.99
74923;HTU21D;64715;44.760;37.678;2023-04-03T02:39:37;10.51;84.00
74923;HTU21D;64715;44.760;37.678;2023-04-03T02:40:38;10.51;83.89
74923;HTU21D;64715;44.760;37.678;2023-04-03T02:41:40;10.49;84.25
74923;HTU21D;64715;44.760;37.678;2023-04-03T02:42:47;10.51;83.81
74923;HTU21D;64715;44.760;37.678;2023-04-03T02:43:48;10.49;83.95
74923;HTU21D;64715;44.760;37.678;2023-04-03T02:44:50;10.46;84.07
74923;HTU21D;64715;44.760;37.678;2023-04-03T02:45:51;10.46;84.28
74923;HTU21D;64715;44.760;37.678;2023-04-03T02:46:52;10.48;84.25
74923;HTU21D;64715;44.760;37.678;2023-04-03T02:47:53;10.44;84.45
74923;HTU21D;64715;44.760;37.678;2023-04-03T02:48:54;10.46;84.26
74923;HTU21D;64715;44.760;37.678;2023-04-03T02:49:55;10.46;84.45
74923;HTU21D;64715;44.760;37.678;2023-04-03T02:50:56;10.45;84.45
74923;HTU21D;64715;44.760;37.678;2023-04-03T02:51:57;10.46;84.50
74923;HTU21D;64715;44.760;37.678;2023-04-03T02:52:59;10.46;84.64
74923;HTU21D;64715;44.760;37.678;2023-04-03T02:54:00;10.48;84.45
74923;HTU21D;64715;44.760;37.678;2023-04-03T02:55:05;10.48;84.58
74923;HTU21D;64715;44.760;37.678;2023-04-03T02:56:06;10.48;84.62
74923;HTU21D;64715;44.760;37.678;2023-04-03T02:57:07;10.48;84.56
74923;HTU21D;64715;44.760;37.678;2023-04-03T02:58:12;10.45;84.80
74923;HTU21D;64715;44.760;37.678;2023-04-03T02:59:13;10.46;84.74
74923;HTU21D;64715;44.760;37.678;2023-04-03T03:00:16;10.48;84.67
74923;HTU21D;64715;44.760;37.678;2023-04-03T03:01:17;10.49;84.66
74923;HTU21D;64715;44.760;37.678;2023-04-03T03:02:18;10.49;85.05
74923;HTU21D;64715;44.760;37.678;2023-04-03T03:03:19;10.48;84.85
74923;HTU21D;64715;44.760;37.678;2023-04-03T03:04:20;10.49;84.85
74923;HTU21D;64715;44.760;37.678;2023-04-03T03:05:21;10.48;85.22
74923;HTU21D;64715;44.760;37.678;2023-04-03T03:06:22;10.50;84.95
74923;HTU21D;64715;44.760;37.678;2023-04-03T03:07:23;10.49;84.81
74923;HTU21D;64715;44.760;37.678;2023-04-03T03:08:24;10.48;85.30
74923;HTU21D;64715;44.760;37.678;2023-04-03T03:09:25;10.49;85.07
74923;HTU21D;64715;44.760;37.678;2023-04-03T03:10:27;10.49;85.11
74923;HTU21D;64715;44.760;37.678;2023-04-03T03:11:28;10.49;85.11
74923;HTU21D;64715;44.760;37.678;2023-04-03T03:12:29;10.48;85.14
74923;HTU21D;64715;44.760;37.678;2023-04-03T03:13:30;10.53;85.09
74923;HTU21D;64715;44.760;37.678;2023-04-03T03:14:31;10.51;85.17
74923;HTU21D;64715;44.760;37.678;2023-04-03T03:15:33;10.51;85.26
74923;HTU21D;64715;44.760;37.678;2023-04-03T03:16:34;10.51;85.01
74923;HTU21D;64715;44.760;37.678;2023-04-03T03:17:35;10.50;85.29
74923;HTU21D;64715;44.760;37.678;2023-04-03T03:18:36;10.51;85.26
74923;HTU21D;64715;44.760;37.678;2023-04-03T03:19:37;10.52;85.23
74923;HTU21D;64715;44.760;37.678;2023-04-03T03:20:38;10.52;85.18
74923;HTU21D;64715;44.760;37.678;2023-04-03T03:21:40;10.52;85.28
74923;HTU21D;64715;44.760;37.678;2023-04-03T03:22:41;10.51;85.27
74923;HTU21D;64715;44.760;37.678;2023-04-03T03:23:42;10.51;85.28
74923;HTU21D;64715;44.760;37.678;2023-04-03T03:24:43;10.51;85.06
74923;HTU21D;64715;44.760;37.678;2023-04-03T03:25:44;10.51;85.32
74923;HTU21D;64715;44.760;37.678;2023-04-03T03:26:45;10.53;85.39
74923;HTU21D;64715;44.760;37.678;2023-04-03T03:27:46;10.50;85.19
74923;HTU21D;64715;44.760;37.678;2023-04-03T03:28:48;10.51;85.23
74923;HTU21D;64715;44.760;37.678;2023-04-03T03:29:50;10.53;85.25
74923;HTU21D;64715;44.760;37.678;2023-04-03T03:30:51;10.52;85.25
74923;HTU21D;64715;44.760;37.678;2023-04-03T03:31:52;10.53;85.27
74923;HTU21D;64715;44.760;37.678;2023-04-03T03:32:53;10.53;85.52
74923;HTU21D;64715;44.760;37.678;2023-04-03T03:33:54;10.53;85.53
74923;HTU21D;64715;44.760;37.678;2023-04-03T03:34:57;10.54;85.55
74923;HTU21D;64715;44.760;37.678;2023-04-03T03:35:57;10.55;85.50
74923;HTU21D;64715;44.760;37.678;2023-04-03T03:36:59;10.54;85.29
74923;HTU21D;64715;44.760;37.678;2023-04-03T03:38:00;10.55;85.50
74923;HTU21D;64715;44.760;37.678;2023-04-03T03:39:01;10.55;85.59
74923;HTU21D;64715;44.760;37.678;2023-04-03T03:40:02;10.55;85.40
74923;HTU21D;64715;44.760;37.678;2023-04-03T03:41:05;10.55;85.71
74923;HTU21D;64715;44.760;37.678;2023-04-03T03:42:08;10.58;85.44
74923;HTU21D;64715;44.760;37.678;2023-04-03T03:43:09;10.57;85.16
74923;HTU21D;64715;44.760;37.678;2023-04-03T03:44:11;10.59;85.22
74923;HTU21D;64715;44.760;37.678;2023-04-03T03:45:12;10.59;85.39
74923;HTU21D;64715;44.760;37.678;2023-04-03T03:46:13;10.59;85.56
74923;HTU21D;64715;44.760;37.678;2023-04-03T03:47:15;10.62;85.35
74923;HTU21D;64715;44.760;37.678;2023-04-03T03:48:16;10.60;85.74
74923;HTU21D;64715;44.760;37.678;2023-04-03T03:49:17;10.62;85.23
74923;HTU21D;64715;44.760;37.678;2023-04-03T03:50:18;10.60;85.54
74923;HTU21D;64715;44.760;37.678;2023-04-03T03:51:19;10.62;85.30
74923;HTU21D;64715;44.760;37.678;2023-04-03T03:52:20;10.62;85.36
74923;HTU21D;64715;44.760;37.678;2023-04-03T03:53:21;10.64;85.52
74923;HTU21D;64715;44.760;37.678;2023-04-03T03:54:25;10.64;85.46
74923;HTU21D;64715;44.760;37.678;2023-04-03T03:55:26;10.64;85.29
74923;HTU21D;64715;44.760;37.678;2023-04-03T03:56:29;10.65;85.49
74923;HTU21D;64715;44.760;37.678;2023-04-03T03:57:30;10.67;85.50
74923;HTU21D;64715;44.760;37.678;2023-04-03T03:58:32;10.68;85.32
74923;HTU21D;64715;44.760;37.678;2023-04-03T03:59:33;10.68;85.45
74923;HTU21D;64715;44.760;37.678;2023-04-03T04:00:34;10.70;85.30
74923;HTU21D;64715;44.760;37.678;2023-04-03T04:01:35;10.69;85.27
74923;HTU21D;64715;44.760;37.678;2023-04-03T04:02:36;10.71;85.18
74923;HTU21D;64715;44.760;37.678;2023-04-03T04:03:37;10.72;85.32
74923;HTU21D;64715;44.760;37.678;2023-04-03T04:04:38;10.72;85.43
74923;HTU21D;64715;44.760;37.678;2023-04-03T04:05:39;10.74;85.50
74923;HTU21D;64715;44.760;37.678;2023-04-03T04:06:40;10.73;85.23
74923;HTU21D;64715;44.760;37.678;2023-04-03T04:07:43;10.75;85.45
74923;HTU21D;64715;44.760;37.678;2023-04-03T04:08:46;10.75;84.97
74923;HTU21D;64715;44.760;37.678;2023-04-03T04:09:48;10.78;85.13
74923;HTU21D;64715;44.760;37.678;2023-04-03T04:10:49;10.77;84.98
74923;HTU21D;64715;44.760;37.678;2023-04-03T04:11:52;10.79;85.12
74923;HTU21D;64715;44.760;37.678;2023-04-03T04:12:54;10.81;85.09
74923;HTU21D;64715;44.760;37.678;2023-04-03T04:13:58;10.81;85.05
74923;HTU21D;64715;44.760;37.678;2023-04-03T04:15:02;10.83;84.90
74923;HTU21D;64715;44.760;37.678;2023-04-03T04:16:04;10.84;84.89
74923;HTU21D;64715;44.760;37.678;2023-04-03T04:17:06;10.86;85.03
74923;HTU21D;64715;44.760;37.678;2023-04-03T04:18:08;10.85;85.02
74923;HTU21D;64715;44.760;37.678;2023-04-03T04:19:11;10.86;84.97
74923;HTU21D;64715;44.760;37.678;2023-04-03T04:20:13;10.87;85.15
74923;HTU21D;64715;44.760;37.678;2023-04-03T04:21:15;10.86;84.82
74923;HTU21D;64715;44.760;37.678;2023-04-03T04:22:16;10.88;84.70
74923;HTU21D;64715;44.760;37.678;2023-04-03T04:23:18;10.88;84.93
74923;HTU21D;64715;44.760;37.678;2023-04-03T04:24:20;10.89;84.68
74923;HTU21D;64715;44.760;37.678;2023-04-03T04:25:23;10.89;84.71
74923;HTU21D;64715;44.760;37.678;2023-04-03T04:26:23;10.89;84.51
74923;HTU21D;64715;44.760;37.678;2023-04-03T04:27:25;10.94;84.45
74923;HTU21D;64715;44.760;37.678;2023-04-03T04:28:27;10.95;84.42
74923;HTU21D;64715;44.760;37.678;2023-04-03T04:29:29;10.94;84.49
74923;HTU21D;64715;44.760;37.678;2023-04-03T04:30:37;10.94;84.42
74923;HTU21D;64715;44.760;37.678;2023-04-03T04:31:38;10.96;84.36
74923;HTU21D;64715;44.760;37.678;2023-04-03T04:32:39;10.97;84.05
74923;HTU21D;64715;44.760;37.678;2023-04-03T04:33:40;10.99;84.25
74923;HTU21D;64715;44.760;37.678;2023-04-03T04:34:43;11.01;84.30
74923;HTU21D;64715;44.760;37.678;2023-04-03T04:35:47;11.02;84.21
74923;HTU21D;64715;44.760;37.678;2023-04-03T04:36:48;11.01;84.02
74923;HTU21D;64715;44.760;37.678;2023-04-03T04:37:49;11.04;84.23
74923;HTU21D;64715;44.760;37.678;2023-04-03T04:38:51;11.07;84.42
74923;HTU21D;64715;44.760;37.678;2023-04-03T04:39:54;11.07;84.27
74923;HTU21D;64715;44.760;37.678;2023-04-03T04:40:56;11.07;84.29
74923;HTU21D;64715;44.760;37.678;2023-04-03T04:41:57;11.09;84.12
74923;HTU21D;64715;44.760;37.678;2023-04-03T04:43:01;11.12;84.13
74923;HTU21D;64715;44.760;37.678;2023-04-03T04:44:02;11.12;84.01
74923;HTU21D;64715;44.760;37.678;2023-04-03T04:45:04;11.14;84.20
74923;HTU21D;64715;44.760;37.678;2023-04-03T04:46:08;11.14;84.11
74923;HTU21D;64715;44.760;37.678;2023-04-03T04:47:16;11.16;83.96
74923;HTU21D;64715;44.760;37.678;2023-04-03T04:48:17;11.15;83.70
74923;HTU21D;64715;44.760;37.678;2023-04-03T04:49:18;11.15;83.75
74923;HTU21D;64715;44.760;37.678;2023-04-03T04:50:19;11.18;83.55
74923;HTU21D;64715;44.760;37.678;2023-04-03T04:51:20;11.19;83.84
74923;HTU21D;64715;44.760;37.678;2023-04-03T04:52:21;11.20;83.83
74923;HTU21D;64715;44.760;37.678;2023-04-03T04:53:22;11.19;83.80
74923;HTU21D;64715;44.760;37.678;2023-04-03T04:54:23;11.18;83.69
74923;HTU21D;64715;44.760;37.678;2023-04-03T04:55:24;11.23;83.50
74923;HTU21D;64715;44.760;37.678;2023-04-03T04:56:26;11.24;83.52
74923;HTU21D;64715;44.760;37.678;2023-04-03T04:57:29;11.25;83.62
74923;HTU21D;64715;44.760;37.678;2023-04-03T04:58:32;11.25;83.53
74923;HTU21D;64715;44.760;37.678;2023-04-03T04:59:35;11.28;83.49
74923;HTU21D;64715;44.760;37.678;2023-04-03T05:00:38;11.30;83.38
74923;HTU21D;64715;44.760;37.678;2023-04-03T05:01:39;11.34;83.47
74923;HTU21D;64715;44.760;37.678;2023-04-03T05:02:44;11.36;83.40
74923;HTU21D;64715;44.760;37.678;2023-04-03T05:03:46;11.37;83.23
74923;HTU21D;64715;44.760;37.678;2023-04-03T05:04:48;11.38;83.19
74923;HTU21D;64715;44.760;37.678;2023-04-03T05:05:55;11.41;83.23
74923;HTU21D;64715;44.760;37.678;2023-04-03T05:06:57;11.40;83.08
74923;HTU21D;64715;44.760;37.678;2023-04-03T05:08:02;11.41;83.44
74923;HTU21D;64715;44.760;37.678;2023-04-03T05:09:03;11.40;83.10
74923;HTU21D;64715;44.760;37.678;2023-04-03T05:10:07;11.40;83.04
74923;HTU21D;64715;44.760;37.678;2023-04-03T05:11:08;11.40;82.95
74923;HTU21D;64715;44.760;37.678;2023-04-03T05:12:09;11.40;83.10
74923;HTU21D;64715;44.760;37.678;2023-04-03T05:13:17;11.39;82.97
74923;HTU21D;64715;44.760;37.678;2023-04-03T05:14:18;11.40;82.86
74923;HTU21D;64715;44.760;37.678;2023-04-03T05:15:20;11.38;82.75
74923;HTU21D;64715;44.760;37.678;2023-04-03T05:16:21;11.36;82.84
74923;HTU21D;64715;44.760;37.678;2023-04-03T05:17:22;11.34;82.84
74923;HTU21D;64715;44.760;37.678;2023-04-03T05:18:27;11.33;82.79
74923;HTU21D;64715;44.760;37.678;2023-04-03T05:19:32;11.34;82.71
74923;HTU21D;64715;44.760;37.678;2023-04-03T05:20:33;11.34;82.75
74923;HTU21D;64715;44.760;37.678;2023-04-03T05:21:34;11.36;82.93
74923;HTU21D;64715;44.760;37.678;2023-04-03T05:22:40;11.33;82.93
74923;HTU21D;64715;44.760;37.678;2023-04-03T05:23:43;11.33;82.71
74923;HTU21D;64715;44.760;37.678;2023-04-03T05:24:44;11.33;82.97
74923;HTU21D;64715;44.760;37.678;2023-04-03T05:25:46;11.33;82.78
74923;HTU21D;64715;44.760;37.678;2023-04-03T05:26:48;11.34;82.64
74923;HTU21D;64715;44.760;37.678;2023-04-03T05:27:50;11.38;82.68
74923;HTU21D;64715;44.760;37.678;2023-04-03T05:28:51;11.39;82.68
74923;HTU21D;64715;44.760;37.678;2023-04-03T05:29:54;11.42;82.53
74923;HTU21D;64715;44.760;37.678;2023-04-03T05:30:57;11.45;82.75
74923;HTU21D;64715;44.760;37.678;2023-04-03T05:32:04;11.49;82.57
74923;HTU21D;64715;44.760;37.678;2023-04-03T05:33:07;11.56;82.84
74923;HTU21D;64715;44.760;37.678;2023-04-03T05:34:22;11.63;82.76
74923;HTU21D;64715;44.760;37.678;2023-04-03T05:35:25;11.69;82.54
74923;HTU21D;64715;44.760;37.678;2023-04-03T05:36:30;11.74;82.36
74923;HTU21D;64715;44.760;37.678;2023-04-03T05:37:36;11.84;82.56
74923;HTU21D;64715;44.760;37.678;2023-04-03T05:38:37;11.89;82.12
74923;HTU21D;64715;44.760;37.678;2023-04-03T05:39:38;11.96;82.06
74923;HTU21D;64715;44.760;37.678;2023-04-03T05:40:41;12.05;82.14
74923;HTU21D;64715;44.760;37.678;2023-04-03T05:41:43;12.11;81.75
74923;HTU21D;64715;44.760;37.678;2023-04-03T05:42:44;12.20;81.84
74923;HTU21D;64715;44.760;37.678;2023-04-03T05:43:46;12.30;81.52
74923;HTU21D;64715;44.760;37.678;2023-04-03T05:44:48;12.36;81.41
74923;HTU21D;64715;44.760;37.678;2023-04-03T05:45:51;12.45;81.20
74923;HTU21D;64715;44.760;37.678;2023-04-03T05:46:54;12.53;80.76
74923;HTU21D;64715;44.760;37.678;2023-04-03T05:47:55;12.62;80.81
74923;HTU21D;64715;44.760;37.678;2023-04-03T05:48:57;12.70;80.58
74923;HTU21D;64715;44.760;37.678;2023-04-03T05:50:01;12.79;80.08
74923;HTU21D;64715;44.760;37.678;2023-04-03T05:51:03;12.91;79.93
74923;HTU21D;64715;44.760;37.678;2023-04-03T05:52:05;13.04;79.67
74923;HTU21D;64715;44.760;37.678;2023-04-03T05:53:07;13.17;79.54
74923;HTU21D;64715;44.760;37.678;2023-04-03T05:54:27;13.36;79.24
74923;HTU21D;64715;44.760;37.678;2023-04-03T05:55:36;13.52;79.10
74923;HTU21D;64715;44.760;37.678;2023-04-03T05:56:37;13.65;78.87
74923;HTU21D;64715;44.760;37.678;2023-04-03T05:57:38;13.83;78.44
74923;HTU21D;64715;44.760;37.678;2023-04-03T05:58:40;14.00;78.06
74923;HTU21D;64715;44.760;37.678;2023-04-03T05:59:42;14.12;77.03
74923;HTU21D;64715;44.760;37.678;2023-04-03T06:00:44;14.23;76.67
74923;HTU21D;64715;44.760;37.678;2023-04-03T06:01:47;14.32;75.92
74923;HTU21D;64715;44.760;37.678;2023-04-03T06:02:48;14.38;75.36
74923;HTU21D;64715;44.760;37.678;2023-04-03T06:03:53;14.44;74.67
74923;HTU21D;64715;44.760;37.678;2023-04-03T06:04:54;14.44;74.39
74923;HTU21D;64715;44.760;37.678;2023-04-03T06:05:55;14.48;74.12
74923;HTU21D;64715;44.760;37.678;2023-04-03T06:06:58;14.52;74.22
74923;HTU21D;64715;44.760;37.678;2023-04-03T06:08:01;14.60;73.87
74923;HTU21D;64715;44.760;37.678;2023-04-03T06:09:05;14.77;74.20
74923;HTU21D;64715;44.760;37.678;2023-04-03T06:10:06;14.94;74.56
74923;HTU21D;64715;44.760;37.678;2023-04-03T06:11:08;15.14;73.99
74923;HTU21D;64715;44.760;37.678;2023-04-03T06:12:09;15.33;72.74
74923;HTU21D;64715;44.760;37.678;2023-04-03T06:13:11;15.46;71.90
74923;HTU21D;64715;44.760;37.678;2023-04-03T06:14:14;15.54;70.47
74923;HTU21D;64715;44.760;37.678;2023-04-03T06:15:16;15.59;70.42
74923;HTU21D;64715;44.760;37.678;2023-04-03T06:16:17;15.67;70.07
74923;HTU21D;64715;44.760;37.678;2023-04-03T06:17:18;15.78;70.08
74923;HTU21D;64715;44.760;37.678;2023-04-03T06:18:19;15.91;70.34
74923;HTU21D;64715;44.760;37.678;2023-04-03T06:19:21;16.06;70.02
74923;HTU21D;64715;44.760;37.678;2023-04-03T06:20:26;16.24;68.95
74923;HTU21D;64715;44.760;37.678;2023-04-03T06:21:28;16.32;68.00
74923;HTU21D;64715;44.760;37.678;2023-04-03T06:22:29;16.43;67.79
74923;HTU21D;64715;44.760;37.678;2023-04-03T06:23:30;16.50;67.78
74923;HTU21D;64715;44.760;37.678;2023-04-03T06:24:33;16.59;67.40
74923;HTU21D;64715;44.760;37.678;2023-04-03T06:25:34;16.70;66.98
74923;HTU21D;64715;44.760;37.678;2023-04-03T06:26:35;16.79;66.92